Thunder radar more information blitzortung!


Radar de pluja more information rain snow radar


Visita la nostra xarxa de llocs de meteo:

Template documentation
and downloads

And another site



No particular awareness of the weather is required.    There are no Weather-warnings

Pagina Historial Weather Underground text

Diari Resum Juliol 28, 2017 Unitats:  Mètric    Imperial   Tant
« Previous Dia
SegĂźent Dia »
Diari Setmana Mensual Anual Personalitzada
  Maxima: Minima: Media:
Temperatura: -17.8 °C -6.3 °C -3.4 °C
Punt de rosada: -17.8 °C -8.2 °C -7.4 °C
Humitat: Humidity % 47 % 65 %
Wind Speed: 0 km/h 0 km/h 13.2 km/h
RĂ fegues de vent: 0 km/h - -
Vent:- - ESE
Pression baro: 0 hPa 34293.4 hPa -
Precipitacions: 0 mm    
Historical Graphs
 
 
Dades de taula per Juliol 28, 2017
Temps Temperatura Punt de rosada Pression baro Vent Wind Speed RĂ fegues de vent Humitat Rainfall Rate (Hourly)
-17.8 °C -17.8 °C 0 hPa Calm     Humidity % 0 mm
00:03 -4.3 °C -7.2 °C 34293.4 hPa Calm     73 % 0 mm
00:05 -5.7 °C -7.4 °C 34327.3 hPa Calm     83 % 0 mm
00:08 -4.3 °C -7.2 °C 34293.4 hPa WSW 4.2 km/h 4.2 km/h 73 % 0 mm
00:13 -4.3 °C -7.2 °C 34293.4 hPa WSW 4.2 km/h 4.2 km/h 73 % 0 mm
00:15 -5.8 °C -7.4 °C 34327.3 hPa Calm     83 % 0 mm
00:18 -4.4 °C -7.1 °C 34293.4 hPa WSW 3.1 km/h 3.1 km/h 74 % 0 mm
00:23 -4.4 °C -7.1 °C 34293.4 hPa Calm     74 % 0 mm
00:25 -5.8 °C -7.3 °C 34327.3 hPa Calm     84 % 0 mm
00:28 -4.4 °C -7.1 °C 34293.4 hPa Calm     75 % 0 mm
00:33 -4.4 °C -7.2 °C 34293.4 hPa WSW 3.1 km/h 3.1 km/h 74 % 0 mm
00:35 -5.8 °C -7.4 °C 34361.1 hPa Calm     84 % 0 mm
00:38 -4.5 °C -7.1 °C 34293.4 hPa WSW 3.1 km/h 3.1 km/h 75 % 0 mm
00:43 -4.6 °C -7.2 °C 34293.4 hPa Calm     75 % 0 mm
00:45 -5.9 °C -7.4 °C 34361.1 hPa Calm     84 % 0 mm
00:48 -4.6 °C -7.1 °C 34293.4 hPa Calm     76 % 0 mm
00:49 -4.6 °C -7.1 °C 34327.3 hPa Calm     76 % 0 mm
00:54 -4.6 °C -7.1 °C 34327.3 hPa Calm     76 % 0 mm
00:55 -5.9 °C -7.3 °C 34327.3 hPa Calm     85 % 0 mm
00:59 -4.6 °C -7.1 °C 34327.3 hPa West 6 km/h 6 km/h 76 % 0 mm
01:04 -4.6 °C -7.1 °C 34293.4 hPa West 3.1 km/h   76 % 0 mm
01:05 -5.9 °C -7.3 °C 34327.3 hPa Calm   2.6 km/h 85 % 0 mm
01:09 -4.6 °C -7 °C 34293.4 hPa Calm     77 % 0 mm
01:14 -4.6 °C -7 °C 34293.4 hPa West 3.7 km/h 3.7 km/h 77 % 0 mm
01:15 -5.9 °C -7.3 °C 34327.3 hPa ENE 2.6 km/h 5.1 km/h 85 % 0 mm
01:19 -4.7 °C -7.1 °C 34327.3 hPa West 3.1 km/h 3.1 km/h 77 % 0 mm
01:24 -4.7 °C -7.1 °C 34327.3 hPa ENE 6 km/h 6 km/h 77 % 0 mm
01:25 -4.7 °C -7.1 °C 34327.3 hPa North 2.6 km/h 5.1 km/h 77 % 0 mm
01:30 -4.8 °C -7.2 °C 34327.3 hPa Calm   5.1 km/h 77 % 0 mm
01:35 -5.9 °C -7.4 °C 34361.1 hPa Calm   7.7 km/h 84 % 0 mm
01:45 -5.9 °C -7.4 °C 34361.1 hPa Calm   2.6 km/h 84 % 0 mm
01:55 -5.8 °C -7.4 °C 34361.1 hPa Calm     84 % 0 mm
02:05 -5.8 °C -7.4 °C 34361.1 hPa NW 2.6 km/h 2.6 km/h 84 % 0 mm
02:15 -5.8 °C -7.3 °C 34361.1 hPa West 2.6 km/h 2.6 km/h 84 % 0 mm
02:25 -5.8 °C -7.4 °C 34361.1 hPa Calm   5.1 km/h 84 % 0 mm
02:35 -5.8 °C -7.4 °C 34361.1 hPa WSW 2.6 km/h 5.1 km/h 84 % 0 mm
02:45 -5.8 °C -7.4 °C 34361.1 hPa SW 2.6 km/h 5.1 km/h 84 % 0 mm
02:55 -5.7 °C -7.2 °C 34395 hPa SW 2.6 km/h 5.1 km/h 85 % 0 mm
03:05 -5.6 °C -7.1 °C 34361.1 hPa SW 2.6 km/h 5.1 km/h 85 % 0 mm
03:15 -5.4 °C -6.9 °C 34361.1 hPa Calm   2.6 km/h 85 % 0 mm
03:25 -5.3 °C -6.8 °C 34395 hPa Calm   5.1 km/h 85 % 0 mm
03:35 -5.1 °C -6.6 °C 34395 hPa South 2.6 km/h 5.1 km/h 84 % 0 mm
03:45 -4.8 °C -6.6 °C 34395 hPa SSW 2.6 km/h 5.1 km/h 82 % 0 mm
03:55 -4.5 °C -6.4 °C 34395 hPa Calm   5.1 km/h 81 % 0 mm
04:05 -4.2 °C -6.2 °C 34395 hPa SSE 2.6 km/h 5.1 km/h 80 % 0 mm
04:15 -3.9 °C -6.2 °C 34395 hPa ESE 5.1 km/h 7.7 km/h 78 % 0 mm
04:25 -3.8 °C -6.3 °C 34395 hPa East 5.1 km/h 7.7 km/h 76 % 0 mm
04:35 -3.9 °C -6.4 °C 34395 hPa East 5.1 km/h 10.3 km/h 76 % 0 mm
04:45 -3.7 °C -6.2 °C 34395 hPa ESE 5.1 km/h 10.3 km/h 76 % 0 mm
04:55 -3.5 °C -6.2 °C 34395 hPa ESE 7.7 km/h 10.3 km/h 75 % 0 mm
05:05 -3.3 °C -6.2 °C 34395 hPa East 5.1 km/h 12.9 km/h 73 % 0 mm
05:15 -2.9 °C -6 °C 34395 hPa East 7.7 km/h 10.3 km/h 72 % 0 mm
05:25 -2.6 °C -6 °C 34395 hPa East 5.1 km/h 12.9 km/h 69 % 0 mm
05:35 -2.7 °C -6.3 °C 34395 hPa ESE 2.6 km/h 12.9 km/h 68 % 0 mm
05:45 -2.4 °C -6.2 °C 34395 hPa ESE 7.7 km/h 7.7 km/h 66 % 0 mm
05:55 -2.4 °C -6.4 °C 34395 hPa ENE 2.6 km/h 15.6 km/h 65 % 0 mm
06:05 -2.1 °C -6.2 °C 34395 hPa ENE 7.7 km/h 12.9 km/h 64 % 0 mm
06:15 -1.9 °C -6.4 °C 34395 hPa ESE 2.6 km/h 15.6 km/h 62 % 0 mm
06:25 -1.8 °C -6.2 °C 34395 hPa Calm   7.7 km/h 62 % 0 mm
06:35 -1.6 °C -6.2 °C 34395 hPa SW 5.1 km/h 7.7 km/h 61 % 0 mm
06:45 -1.6 °C -6.3 °C 34395 hPa WSW 5.1 km/h 10.3 km/h 60 % 0 mm
06:50 -1.4 °C -6.3 °C 34395 hPa WSW 7.7 km/h 7.7 km/h 59 % 0 mm
06:55 -1.4 °C -6.6 °C 34395 hPa WSW 7.7 km/h 7.7 km/h 57 % 0 mm
07:00 -1.4 °C -6.8 °C 34395 hPa SSE 7.7 km/h 7.7 km/h 56 % 0 mm
12:01 -1.5 °C -7.1 °C 34395 hPa SSE 9 km/h 11.6 km/h 55 % 0 mm
12:06 -1.6 °C -7.2 °C 34395 hPa South 17.9 km/h 17.9 km/h 55 % 0 mm
12:11 -1.7 °C -7.3 °C 34395 hPa ESE 16.1 km/h 16.1 km/h 54 % 0 mm
12:16 -1.4 °C -7.2 °C 34395 hPa East 14.5 km/h 14.5 km/h 54 % 0 mm
12:21 -1.4 °C -7.3 °C 34395 hPa East 26.9 km/h 26.9 km/h 53 % 0 mm
12:26 -1.3 °C -7.2 °C 34395 hPa ESE 16.6 km/h 16.6 km/h 53 % 0 mm
12:31 -1.3 °C -7.4 °C 34395 hPa ESE 22.5 km/h 22.5 km/h 52 % 0 mm
12:36 -1.6 °C -7.7 °C 34395 hPa ENE 15 km/h 15 km/h 52 % 0 mm
12:41 -1.6 °C -7.7 °C 34395 hPa ESE 23.8 km/h 23.8 km/h 52 % 0 mm
12:46 -1.5 °C -7.6 °C 34395 hPa South 24.3 km/h 24.3 km/h 52 % 0 mm
12:51 -1.4 °C -7.6 °C 34361.1 hPa ESE 22 km/h 22 km/h 51 % 0 mm
12:56 -1.4 °C -7.4 °C 34361.1 hPa SE 20.9 km/h 20.9 km/h 52 % 0 mm
13:01 -0.9 °C -7.2 °C 34361.1 hPa ESE 19.6 km/h 19.6 km/h 51 % 0 mm
13:06 -1.1 °C -7.4 °C 34361.1 hPa ENE 23.8 km/h 23.8 km/h 50 % 0 mm
13:11 -1.1 °C -7.7 °C 34361.1 hPa ESE 22 km/h 22 km/h 49 % 0 mm
13:17 -1.3 °C -7.7 °C 34361.1 hPa East 32.3 km/h 32.3 km/h 50 % 0 mm
13:22 -1.3 °C -7.7 °C 34361.1 hPa ESE 28.2 km/h 28.2 km/h 50 % 0 mm
13:27 -0.9 °C -7.6 °C 34361.1 hPa ESE 20.9 km/h 20.9 km/h 49 % 0 mm
13:32 -1.1 °C -7.7 °C 34361.1 hPa SE 23.8 km/h 23.8 km/h 49 % 0 mm
13:37 -1.2 °C -7.7 °C 34361.1 hPa ESE 26.9 km/h 26.9 km/h 49 % 0 mm
13:42 -1 °C -7.6 °C 34361.1 hPa ESE 30.6 km/h 30.6 km/h 49 % 0 mm
13:47 -1.2 °C -7.6 °C 34361.1 hPa South 17.9 km/h 17.9 km/h 50 % 0 mm
13:52 -0.9 °C -7.3 °C 34327.3 hPa SE 20.9 km/h 20.9 km/h 50 % 0 mm
13:57 -1 °C -7.4 °C 34327.3 hPa ESE 23.8 km/h 23.8 km/h 50 % 0 mm
14:02 -1.1 °C -7.7 °C 34327.3 hPa ESE 32.8 km/h 32.8 km/h 49 % 0 mm
14:07 -1.3 °C -7.7 °C 34327.3 hPa ESE 20.9 km/h 20.9 km/h 50 % 0 mm
14:12 -1.4 °C -7.8 °C 34327.3 hPa East 38.8 km/h 38.8 km/h 50 % 0 mm
14:17 -1.5 °C -7.9 °C 34327.3 hPa ESE 29.8 km/h 29.8 km/h 50 % 0 mm
14:22 -1.4 °C -7.8 °C 34327.3 hPa ESE 27.2 km/h 27.2 km/h 50 % 0 mm
14:27 -1.2 °C -7.6 °C 34327.3 hPa East 16.6 km/h 16.6 km/h 50 % 0 mm
14:32 -1.1 °C -7.7 °C 34327.3 hPa ESE 20.9 km/h 20.9 km/h 49 % 0 mm
14:37 -1.2 °C -7.7 °C 34327.3 hPa East 23.8 km/h 23.8 km/h 49 % 0 mm
14:42 -1.1 °C -7.7 °C 34327.3 hPa ENE 17.9 km/h 17.9 km/h 49 % 0 mm
14:52 -1.2 °C -7.6 °C 34361.1 hPa ENE 25.1 km/h 25.1 km/h 50 % 0 mm
14:57 -1.3 °C -7.7 °C 34361.1 hPa ENE 16.6 km/h 16.6 km/h 50 % 0 mm
15:02 -1.1 °C -7.7 °C 34361.1 hPa ESE 26.9 km/h 26.9 km/h 49 % 0 mm
15:07 -0.9 °C -7.6 °C 34327.3 hPa SSE 23.8 km/h 23.8 km/h 49 % 0 mm
15:12 -0.8 °C -7.6 °C 34327.3 hPa SSW 17.9 km/h 17.9 km/h 48 % 0 mm
15:17 -1 °C -7.8 °C 34327.3 hPa ESE 32.8 km/h 32.8 km/h 48 % 0 mm
15:22 -0.9 °C -7.7 °C 34327.3 hPa SE 20.9 km/h 20.9 km/h 48 % 0 mm
15:27 -0.7 °C -7.5 °C 34327.3 hPa SSW 20.9 km/h 20.9 km/h 48 % 0 mm
15:32 -0.7 °C -7.5 °C 34327.3 hPa SSE 17.9 km/h 17.9 km/h 48 % 0 mm
15:37 -0.8 °C -7.6 °C 34327.3 hPa SE 17.4 km/h 17.4 km/h 48 % 0 mm
15:42 -1 °C -7.8 °C 34327.3 hPa ESE 23.8 km/h 23.8 km/h 48 % 0 mm
15:47 -0.8 °C -7.7 °C 34327.3 hPa ENE 23.8 km/h 23.8 km/h 48 % 0 mm
15:52 -0.9 °C -7.7 °C 34327.3 hPa ENE 29.8 km/h 29.8 km/h 48 % 0 mm
15:57 -0.8 °C -7.8 °C 34327.3 hPa ENE 33.2 km/h 33.2 km/h 47 % 0 mm
16:02 -0.8 °C -7.7 °C 34327.3 hPa ESE 39.4 km/h 39.4 km/h 48 % 0 mm
16:07 -1.2 °C -7.9 °C 34327.3 hPa ENE 35.7 km/h 35.7 km/h 48 % 0 mm
16:12 -1.1 °C -7.8 °C 34327.3 hPa ESE 23.8 km/h 23.8 km/h 48 % 0 mm
16:17 -1 °C -7.8 °C 34327.3 hPa East 29.8 km/h 29.8 km/h 48 % 0 mm
16:22 -1.2 °C -7.9 °C 34327.3 hPa ESE 41.7 km/h 41.7 km/h 48 % 0 mm
16:27 -1.1 °C -7.9 °C 34327.3 hPa ESE 29.8 km/h 29.8 km/h 48 % 0 mm
16:32 -1.2 °C -7.9 °C 34327.3 hPa East 33.2 km/h 33.2 km/h 48 % 0 mm
16:37 -1.2 °C -8 °C 34327.3 hPa NNE 26.9 km/h 26.9 km/h 48 % 0 mm
16:42 -1 °C -7.8 °C 34327.3 hPa ESE 23.8 km/h 23.8 km/h 48 % 0 mm
16:47 -1.2 °C -7.9 °C 34327.3 hPa ENE 23.8 km/h 23.8 km/h 48 % 0 mm
16:52 -1.2 °C -8 °C 34327.3 hPa SSE 26.4 km/h 26.4 km/h 48 % 0 mm
16:57 -1.3 °C -8.1 °C 34327.3 hPa ENE 25.1 km/h 25.1 km/h 48 % 0 mm
17:02 -1.3 °C -7.9 °C 34327.3 hPa ESE 29.8 km/h 29.8 km/h 49 % 0 mm
17:07 -1.4 °C -7.9 °C 34327.3 hPa ESE 32.8 km/h 32.8 km/h 49 % 0 mm
17:12 -1.5 °C -8.1 °C 34327.3 hPa ESE 23.8 km/h 23.8 km/h 49 % 0 mm
17:17 -1.5 °C -8.1 °C 34327.3 hPa East 29.8 km/h 29.8 km/h 49 % 0 mm
17:22 -1.6 °C -8.1 °C 34293.4 hPa NNE 26.9 km/h 26.9 km/h 49 % 0 mm
17:27 -1.4 °C -8 °C 34293.4 hPa ENE 25.9 km/h 25.9 km/h 49 % 0 mm
17:32 -1.6 °C -8.1 °C 34293.4 hPa ESE 20.9 km/h 20.9 km/h 49 % 0 mm
17:37 -1.6 °C -8.1 °C 34327.3 hPa ESE 26.9 km/h 26.9 km/h 49 % 0 mm
17:42 -1.6 °C -8.2 °C 34327.3 hPa NE 26.9 km/h 26.9 km/h 49 % 0 mm
17:47 -1.7 °C -7.9 °C 34327.3 hPa SE 32.8 km/h 32.8 km/h 51 % 0 mm
17:52 -1.7 °C -8.1 °C 34293.4 hPa ESE 15 km/h 15 km/h 50 % 0 mm
17:57 -1.7 °C -7.9 °C 34293.4 hPa ENE 23.8 km/h 23.8 km/h 51 % 0 mm
18:02 -1.8 °C -7.9 °C 34293.4 hPa ESE 27.2 km/h 27.2 km/h 51 % 0 mm
18:09 -1.9 °C -8.1 °C 34293.4 hPa ESE 23.8 km/h 23.8 km/h 51 % 0 mm
18:14 -1.9 °C -8.1 °C 34293.4 hPa East 23.8 km/h 23.8 km/h 51 % 0 mm
18:19 -1.9 °C -8.1 °C 34293.4 hPa ESE 29.8 km/h 29.8 km/h 51 % 0 mm
18:24 -1.9 °C -8.1 °C 34293.4 hPa ESE 29.8 km/h 29.8 km/h 51 % 0 mm
18:29 -2.1 °C -8.1 °C 34293.4 hPa ESE 35.7 km/h 35.7 km/h 52 % 0 mm
18:34 -2.1 °C -8.1 °C 34293.4 hPa ESE 29.8 km/h 29.8 km/h 52 % 0 mm
18:39 -2.1 °C -8.1 °C 34293.4 hPa ESE 29 km/h 29 km/h 52 % 0 mm
18:49 -2.3 °C -8.2 °C 34293.4 hPa ESE 20.9 km/h 20.9 km/h 53 % 0 mm
18:54 -2.3 °C -8.2 °C 34293.4 hPa ENE 23.8 km/h 23.8 km/h 53 % 0 mm
18:59 -2.3 °C -8.1 °C 34293.4 hPa East 23.8 km/h 23.8 km/h 53 % 0 mm
19:04 -2.2 °C -8.1 °C 34293.4 hPa ENE 20.9 km/h 20.9 km/h 53 % 0 mm
19:09 -2.3 °C -7.9 °C 34293.4 hPa NNE 16.1 km/h 16.1 km/h 54 % 0 mm
19:10 -5.1 °C -7.2 °C 34395 hPa NE 5.1 km/h 7.7 km/h 79 % 0 mm
19:14 -2.3 °C -7.9 °C 34293.4 hPa ENE 23.8 km/h 23.8 km/h 54 % 0 mm
19:19 -2.4 °C -8 °C 34293.4 hPa NNE 17.9 km/h 18.3 km/h 54 % 0 mm
19:20 -5.1 °C -7.1 °C 34395 hPa ENE 7.7 km/h 10.3 km/h 80 % 0 mm
19:24 -2.4 °C -7.9 °C 34293.4 hPa ESE 15 km/h 15 km/h 55 % 0 mm
19:29 -2.3 °C -7.8 °C 34293.4 hPa ENE 11.9 km/h 11.9 km/h 55 % 0 mm
19:30 -5.1 °C -7.1 °C 34395 hPa ENE 5.1 km/h 7.7 km/h 80 % 0 mm
19:34 -2.4 °C -7.9 °C 34293.4 hPa SE 15 km/h 15 km/h 55 % 0 mm
19:39 -2.4 °C -7.9 °C 34293.4 hPa ENE 15 km/h 15 km/h 55 % 0 mm
19:40 -5.1 °C -7 °C 34395 hPa East 5.1 km/h 12.9 km/h 81 % 0 mm
19:44 -2.7 °C -7.9 °C 34293.4 hPa ENE 17.9 km/h 17.9 km/h 56 % 0 mm
19:49 -2.7 °C -7.8 °C 34327.3 hPa NE 11.9 km/h 11.9 km/h 57 % 0 mm
19:50 -5.2 °C -7.1 °C 34395 hPa East 5.1 km/h 7.7 km/h 81 % 0 mm
19:54 -2.8 °C -7.9 °C 34327.3 hPa ESE 20.9 km/h 20.9 km/h 57 % 0 mm
19:59 -2.8 °C -7.9 °C 34327.3 hPa East 15 km/h 15 km/h 57 % 0 mm
20:00 -5.2 °C -7.2 °C 34395 hPa ENE 2.6 km/h 7.7 km/h 80 % 0 mm
20:04 -2.8 °C -7.9 °C 34327.3 hPa ENE 9 km/h 9 km/h 57 % 0 mm
20:09 -2.9 °C -7.9 °C 34327.3 hPa ESE 17.9 km/h 17.9 km/h 58 % 0 mm
20:10 -5.3 °C -7.2 °C 34395 hPa Calm   5.1 km/h 81 % 0 mm
20:14 -2.9 °C -7.8 °C 34327.3 hPa SE 15 km/h 15 km/h 59 % 0 mm
20:19 -3 °C -7.8 °C 34327.3 hPa East 15.6 km/h 15.6 km/h 59 % 0 mm
20:20 -5.3 °C -7.2 °C 34395 hPa NE 2.6 km/h 5.1 km/h 81 % 0 mm
20:24 -3.1 °C -7.9 °C 34327.3 hPa SSE 15 km/h 15.3 km/h 59 % 0 mm
20:29 -3.2 °C -7.9 °C 34327.3 hPa ESE 17.9 km/h 17.9 km/h 60 % 0 mm
20:30 -5.3 °C -7.2 °C 34395 hPa NNE 5.1 km/h 7.7 km/h 81 % 0 mm
20:34 -3.2 °C -7.7 °C 34327.3 hPa ENE 17.9 km/h 17.9 km/h 61 % 0 mm
20:39 -3.3 °C -7.7 °C 34327.3 hPa ENE 15 km/h 15 km/h 62 % 0 mm
20:40 -5.4 °C -7.3 °C 34395 hPa NNE 5.1 km/h 7.7 km/h 81 % 0 mm
20:44 -3.4 °C -7.7 °C 34327.3 hPa ESE 11.9 km/h 11.9 km/h 62 % 0 mm
20:49 -3.4 °C -7.7 °C 34327.3 hPa ESE 11.9 km/h 11.9 km/h 63 % 0 mm
20:50 -5.4 °C -7.3 °C 34361.1 hPa NNE 2.6 km/h 7.7 km/h 81 % 0 mm
20:54 -3.5 °C -7.7 °C 34327.3 hPa ENE 12.2 km/h 12.2 km/h 63 % 0 mm
20:58 -3.6 °C -7.7 °C 34327.3 hPa ENE 15.3 km/h 15.3 km/h 63 % 0 mm
21:00 -5.4 °C -7.3 °C 34361.1 hPa NNE 2.6 km/h 5.1 km/h 81 % 0 mm
21:03 -3.7 °C -7.7 °C 34327.3 hPa ENE 9.8 km/h 9.8 km/h 64 % 0 mm
21:08 -3.7 °C -7.7 °C 34327.3 hPa ENE 17.9 km/h 17.9 km/h 65 % 0 mm
21:10 -5.5 °C -7.3 °C 34395 hPa NNE 5.1 km/h 5.1 km/h 82 % 0 mm
21:13 -3.8 °C -7.7 °C 34327.3 hPa East 15 km/h 15 km/h 65 % 0 mm
21:18 -3.9 °C -7.7 °C 34327.3 hPa ENE 15 km/h 15 km/h 66 % 0 mm
21:20 -5.6 °C -7.3 °C 34395 hPa Calm   2.6 km/h 82 % 0 mm
21:23 -3.9 °C -7.4 °C 34327.3 hPa East 11.9 km/h 11.9 km/h 68 % 0 mm
21:28 -4 °C -7.4 °C 34327.3 hPa ESE 17.9 km/h 17.9 km/h 69 % 0 mm
21:30 -5.6 °C -7.3 °C 34395 hPa Calm   5.1 km/h 82 % 0 mm
21:33 -4.1 °C -7.3 °C 34327.3 hPa ENE 15 km/h 15 km/h 70 % 0 mm
21:38 -4.1 °C -7.3 °C 34327.3 hPa ENE 17.9 km/h 17.9 km/h 70 % 0 mm
21:40 -5.6 °C -7.3 °C 34395 hPa Calm   2.6 km/h 83 % 0 mm
21:43 -4.2 °C -7.4 °C 34327.3 hPa ESE 9 km/h 9 km/h 70 % 0 mm
21:48 -4.2 °C -7.4 °C 34327.3 hPa East 15.6 km/h 15.6 km/h 70 % 0 mm
21:50 -5.7 °C -7.3 °C 34395 hPa NNE 2.6 km/h 2.6 km/h 83 % 0 mm
21:53 -4.2 °C -7.3 °C 34327.3 hPa ESE 17.9 km/h 17.9 km/h 71 % 0 mm
21:58 -4.3 °C -7.3 °C 34327.3 hPa ENE 11.9 km/h 11.9 km/h 72 % 0 mm
22:00 -5.7 °C -7.4 °C 34395 hPa Calm     83 % 0 mm
22:03 -4.3 °C -7.3 °C 34327.3 hPa ESE 11.9 km/h 11.9 km/h 72 % 0 mm
22:08 -4.3 °C -7.2 °C 34361.1 hPa ENE 11.9 km/h 11.9 km/h 73 % 0 mm
22:10 -5.8 °C -7.4 °C 34395 hPa Calm     83 % 0 mm
22:13 -4.4 °C -7.3 °C 34361.1 hPa East 15.3 km/h 15.3 km/h 73 % 0 mm
22:18 -4.4 °C -7.2 °C 34361.1 hPa East 15 km/h 15 km/h 74 % 0 mm
22:20 -5.8 °C -7.5 °C 34395 hPa Calm     83 % 0 mm
22:23 -4.4 °C -7.2 °C 34361.1 hPa ESE 17.9 km/h 17.9 km/h 74 % 0 mm
22:28 -4.4 °C -7.1 °C 34361.1 hPa ESE 15 km/h 15 km/h 75 % 0 mm
22:30 -5.9 °C -7.4 °C 34395 hPa Calm   2.6 km/h 84 % 0 mm
22:33 -4.5 °C -7.1 °C 34361.1 hPa NNE 9 km/h 9 km/h 75 % 0 mm
22:38 -4.6 °C -7.2 °C 34361.1 hPa East 9 km/h 9 km/h 75 % 0 mm
22:40 -5.9 °C -7.5 °C 34395 hPa ENE 2.6 km/h 5.1 km/h 84 % 0 mm
22:43 -4.6 °C -7.2 °C 34361.1 hPa ESE 15 km/h 15 km/h 75 % 0 mm
22:48 -4.6 °C -7.2 °C 34361.1 hPa East 11.9 km/h 11.9 km/h 75 % 0 mm
22:50 -6 °C -7.6 °C 34361.1 hPa ENE 2.6 km/h 2.6 km/h 84 % 0 mm
22:53 -4.7 °C -7.3 °C 34395 hPa ENE 15 km/h 15 km/h 75 % 0 mm
22:58 -4.7 °C -7.2 °C 34395 hPa ENE 12.2 km/h 12.2 km/h 76 % 0 mm
23:00 -6 °C -7.6 °C 34361.1 hPa Calm     84 % 0 mm
23:03 -4.7 °C -7.2 °C 34395 hPa East 15 km/h 15 km/h 76 % 0 mm
23:08 -4.7 °C -7.2 °C 34361.1 hPa ENE 6.3 km/h 6.3 km/h 76 % 0 mm
23:10 -6.1 °C -7.6 °C 34361.1 hPa Calm     84 % 0 mm
23:13 -4.7 °C -7.2 °C 34361.1 hPa NE 6.3 km/h 6.8 km/h 76 % 0 mm
23:18 -4.8 °C -7.3 °C 34395 hPa NNE 6 km/h 6.3 km/h 76 % 0 mm
23:20 -6.1 °C -7.7 °C 34361.1 hPa ENE 2.6 km/h 5.1 km/h 84 % 0 mm
23:23 -4.8 °C -7.3 °C 34395 hPa ENE 11.9 km/h 11.9 km/h 76 % 0 mm
23:28 -4.8 °C -7.3 °C 34395 hPa NE 9 km/h 9 km/h 76 % 0 mm
23:30 -6.2 °C -7.7 °C 34361.1 hPa NE 2.6 km/h 2.6 km/h 84 % 0 mm
23:33 -4.9 °C -7.4 °C 34395 hPa NNE 9 km/h 9 km/h 76 % 0 mm
23:38 -4.9 °C -7.3 °C 34395 hPa ENE 9 km/h 9 km/h 77 % 0 mm
23:40 -6.2 °C -7.8 °C 34395 hPa Calm     84 % 0 mm
23:43 -4.9 °C -7.3 °C 34395 hPa ENE 9 km/h 9 km/h 77 % 0 mm
23:48 -4.9 °C -7.3 °C 34395 hPa NE 9 km/h 9 km/h 77 % 0 mm
23:50 -6.3 °C -7.9 °C 34395 hPa SE 2.6 km/h 5.1 km/h 84 % 0 mm
23:53 -5 °C -7.4 °C 34395 hPa NE 11.9 km/h 11.9 km/h 77 % 0 mm
23:58 -5 °C -7.3 °C 34395 hPa NE 9.3 km/h 9.3 km/h 78 % 0 mm
Meteo Sesrovires
Elogis d' Weather Underground - 3.75 mb

Guio original per  Jim McMurry - jmcmurry@mwt.net Adaptat per a la plantilla per  Wim van der Kuil - Leuven-Template.eu

Trobareu la nostra informacio del temps tambe a:

Weather Underground

AWEKAS